createdAt,value
2022-10-25T00:00:01.972Z,98.95
2022-10-25T00:05:01.415Z,99
2022-10-25T00:10:02.236Z,99.08
2022-10-25T00:15:02.140Z,99.11
2022-10-25T00:20:01.636Z,99.16
2022-10-25T00:25:01.567Z,99.46
2022-10-25T00:30:02.214Z,99.34
2022-10-25T00:35:01.691Z,98.92
2022-10-25T00:40:01.457Z,98.87
2022-10-25T00:45:01.442Z,98.76
2022-10-25T00:50:01.956Z,98.68
2022-10-25T00:55:01.286Z,98.58
2022-10-25T01:00:02.013Z,98.78
2022-10-25T01:05:01.476Z,98.26
2022-10-25T01:10:01.703Z,98.55
2022-10-25T01:15:01.484Z,98.44
2022-10-25T01:20:01.267Z,98.29
2022-10-25T01:25:01.628Z,98.29
2022-10-25T01:30:02.161Z,98.36
2022-10-25T01:35:01.945Z,98.5
2022-10-25T01:40:01.619Z,100.1
2022-10-25T01:45:01.837Z,99.98
2022-10-25T01:50:01.272Z,99.85
2022-10-25T01:55:01.941Z,97.76
2022-10-25T02:00:01.819Z,99.84
2022-10-25T02:05:01.823Z,100.07
2022-10-25T02:10:02.009Z,100.01
2022-10-25T02:15:01.844Z,98.25
2022-10-25T02:20:02.232Z,98.55
2022-10-25T02:25:01.652Z,100.14
2022-10-25T02:30:01.312Z,100.14
2022-10-25T02:35:01.691Z,98.3
2022-10-25T02:40:01.898Z,98.23
2022-10-25T02:45:01.596Z,99.9
2022-10-25T02:50:01.825Z,97.88
2022-10-25T02:55:01.875Z,99.69
2022-10-25T03:00:01.691Z,97.94
2022-10-25T03:05:01.653Z,98.11
2022-10-25T03:10:02.200Z,97.99
2022-10-25T03:15:01.644Z,99.58
2022-10-25T03:20:02.033Z,98.18
2022-10-25T03:25:01.720Z,99.85
2022-10-25T03:30:02.277Z,99.69
2022-10-25T03:35:01.868Z,97.8
2022-10-25T03:40:01.828Z,99.59
2022-10-25T03:45:01.477Z,99.27
2022-10-25T03:50:01.767Z,99.16
2022-10-25T03:55:02.010Z,98.99
2022-10-25T04:00:01.439Z,98.85
2022-10-25T04:05:01.796Z,98.9
2022-10-25T04:10:01.626Z,98.98
2022-10-25T04:15:01.464Z,98.88
2022-10-25T04:20:02.102Z,98.87
2022-10-25T04:25:02.191Z,99.37
2022-10-25T04:30:02.109Z,99.73
2022-10-25T04:35:01.550Z,99.72
2022-10-25T04:40:01.307Z,99.75
2022-10-25T04:45:01.574Z,99.88
2022-10-25T04:50:01.659Z,99.86
2022-10-25T04:55:02.185Z,99.85
2022-10-25T05:00:02.096Z,98.21
2022-10-25T05:05:02.262Z,99.79
2022-10-25T05:10:01.367Z,98.32
2022-10-25T05:15:01.830Z,98.44
2022-10-25T05:20:02.208Z,98.4
2022-10-25T05:25:01.429Z,98.49
2022-10-25T05:30:02.221Z,98.4
2022-10-25T05:35:02.057Z,98.34
2022-10-25T05:40:02.168Z,99.96
2022-10-25T05:45:01.423Z,98.13
2022-10-25T05:50:02.092Z,98.25
2022-10-25T05:55:01.407Z,98.01
2022-10-25T06:00:01.853Z,98.13
2022-10-25T06:05:01.296Z,97.72
2022-10-25T06:10:01.593Z,97.73
2022-10-25T06:15:01.620Z,97.55
2022-10-25T06:20:01.822Z,97.57
2022-10-25T06:25:01.409Z,99.3
2022-10-25T06:30:02.152Z,99.3
2022-10-25T06:35:01.654Z,99.03
2022-10-25T06:40:01.681Z,98.73
2022-10-25T06:45:01.838Z,99.02
2022-10-25T06:50:02.377Z,98.66
2022-10-25T06:55:02.219Z,98.6
2022-10-25T07:00:06.773Z,99
2022-10-25T07:05:01.888Z,98.46
2022-10-25T07:10:02.118Z,98.57
2022-10-25T07:15:01.833Z,98.48
2022-10-25T07:20:01.833Z,98.77
2022-10-25T07:25:01.524Z,98.99
2022-10-25T07:30:01.422Z,99.55
2022-10-25T07:35:02.080Z,99.69
2022-10-25T07:40:01.341Z,99.34
2022-10-25T07:45:01.541Z,99.67
2022-10-25T07:50:02.052Z,99.31
2022-10-25T07:55:02.143Z,99.02
2022-10-25T08:00:01.815Z,99
2022-10-25T08:05:01.604Z,99.21
2022-10-25T08:10:01.604Z,99.04
2022-10-25T08:15:01.395Z,98.66
2022-10-25T08:20:01.859Z,97.6
2022-10-25T08:25:01.423Z,98.98
2022-10-25T08:30:01.423Z,97.61
2022-10-25T08:35:02.147Z,98.47
2022-10-25T08:40:01.776Z,97.82
2022-10-25T08:45:02.077Z,97.26
2022-10-25T08:50:02.147Z,98.15
2022-10-25T08:55:04.905Z,97.44
2022-10-25T09:00:01.824Z,97.51
2022-10-25T09:05:02.208Z,95.92
2022-10-25T09:10:01.529Z,94.31
2022-10-25T09:15:02.230Z,95.86
2022-10-25T09:20:01.710Z,95.14
2022-10-25T09:25:01.337Z,93.9
2022-10-25T09:30:05.134Z,92.87
2022-10-25T09:35:02.240Z,92.12
2022-10-25T09:40:01.453Z,90.84
2022-10-25T09:45:01.914Z,89.99
2022-10-25T09:50:01.477Z,90.27
2022-10-25T09:55:01.708Z,90.61
2022-10-25T10:00:01.694Z,90.3
2022-10-25T10:05:01.583Z,89.64
2022-10-25T10:10:02.014Z,89
2022-10-25T10:15:01.922Z,90.02
2022-10-25T10:20:01.390Z,89.86
2022-10-25T10:25:01.942Z,89.14
2022-10-25T10:30:01.335Z,89.08
2022-10-25T10:35:02.214Z,89
2022-10-25T10:40:02.209Z,88.35
2022-10-25T10:45:01.365Z,87.88
2022-10-25T10:50:01.804Z,88.03
2022-10-25T10:55:01.833Z,86.34
2022-10-25T11:00:01.615Z,86.98
2022-10-25T11:05:02.155Z,84.42
2022-10-25T11:10:01.865Z,84.64
2022-10-25T11:15:01.935Z,86.85
2022-10-25T11:20:01.751Z,84.33
2022-10-25T11:25:01.366Z,87.46
2022-10-25T11:30:02.080Z,86.42
2022-10-25T11:35:02.049Z,85.51
2022-10-25T11:40:01.977Z,86.74
2022-10-25T11:45:01.410Z,87.28
2022-10-25T11:50:01.790Z,87.96
2022-10-25T11:55:01.763Z,87.79
2022-10-25T12:00:01.246Z,87.47
2022-10-25T12:05:01.945Z,85.73
2022-10-25T12:10:01.745Z,84.97
2022-10-25T12:15:02.074Z,87.26
2022-10-25T12:20:01.802Z,84.9
2022-10-25T12:25:01.559Z,85.66
2022-10-25T12:30:01.741Z,83.54
2022-10-25T12:35:02.178Z,82.57
2022-10-25T12:40:01.952Z,82.39
2022-10-25T12:45:02.216Z,82.7
2022-10-25T12:50:02.311Z,83.24
2022-10-25T12:55:01.756Z,85.08
2022-10-25T13:00:01.625Z,82.81
2022-10-25T13:05:01.374Z,83.4
2022-10-25T13:10:02.028Z,82.01
2022-10-25T13:15:01.796Z,83.05
2022-10-25T13:20:01.689Z,81.6
2022-10-25T13:25:01.704Z,79.53
2022-10-25T13:30:01.911Z,78.78
2022-10-25T13:35:01.731Z,78.91
2022-10-25T13:40:01.354Z,84.44
2022-10-25T13:45:01.950Z,86.14
2022-10-25T13:50:01.829Z,83.47
2022-10-25T13:55:01.612Z,81.32
2022-10-25T14:00:01.881Z,83
2022-10-25T14:05:01.686Z,79.15
2022-10-25T14:10:02.165Z,80.8
2022-10-25T14:15:02.073Z,80.96
2022-10-25T14:20:02.162Z,80.03
2022-10-25T14:25:01.932Z,79.11
2022-10-25T14:30:01.680Z,79.64
2022-10-25T14:35:01.735Z,80.22
2022-10-25T14:40:02.183Z,80.67
2022-10-25T14:45:02.277Z,82.58
2022-10-25T14:50:01.633Z,79.03
2022-10-25T14:55:01.611Z,79.97
2022-10-25T15:00:01.583Z,80.8
2022-10-25T15:05:01.481Z,82.05
2022-10-25T15:10:02.442Z,82.97
2022-10-25T15:15:01.504Z,84.7
2022-10-25T15:20:01.758Z,85.76
2022-10-25T15:25:02.132Z,86.17
2022-10-25T15:30:01.284Z,86.86
2022-10-25T15:35:01.762Z,86.59
2022-10-25T15:40:01.458Z,87.75
2022-10-25T15:45:01.730Z,88.72
2022-10-25T15:50:01.487Z,86.98
2022-10-25T15:55:01.874Z,86.94
2022-10-25T16:00:01.308Z,86.62
2022-10-25T16:05:02.016Z,87.36
2022-10-25T16:10:02.017Z,87.2
2022-10-25T16:15:01.229Z,87.75
2022-10-25T16:20:02.116Z,87.81
2022-10-25T16:25:01.993Z,88.65
2022-10-25T16:30:01.509Z,89.12
2022-10-25T16:35:01.394Z,89.65
2022-10-25T16:40:01.890Z,89.96
2022-10-25T16:45:01.373Z,89.52
2022-10-25T16:50:02.091Z,89.7
2022-10-25T16:55:02.000Z,89.2
2022-10-25T17:00:01.268Z,89.33
2022-10-25T17:05:01.404Z,89.62
2022-10-25T17:10:02.446Z,89.59
2022-10-25T17:15:01.743Z,89.6
2022-10-25T17:20:02.143Z,89.36
2022-10-25T17:25:01.402Z,89.75
2022-10-25T17:30:02.168Z,89.46
2022-10-25T17:35:01.822Z,89.36
2022-10-25T17:40:01.330Z,89.91
2022-10-25T17:45:01.277Z,90.39
2022-10-25T17:50:01.413Z,90.63
2022-10-25T17:55:02.177Z,91.11
2022-10-25T18:00:02.185Z,91.28
2022-10-25T18:05:19.517Z,91.63
2022-10-25T18:10:01.655Z,91.61
2022-10-25T18:15:02.043Z,91.77
2022-10-25T18:20:01.318Z,92.19
2022-10-25T18:25:01.999Z,92.48
2022-10-25T18:30:01.716Z,92.41
2022-10-25T18:35:01.475Z,92.26
2022-10-25T18:40:01.351Z,92.19
2022-10-25T18:45:01.292Z,91.6
2022-10-25T18:50:02.049Z,91.63
2022-10-25T18:55:02.145Z,92.52
2022-10-25T19:00:01.808Z,93.09
2022-10-25T19:05:01.821Z,92.96
2022-10-25T19:10:01.934Z,93.32
2022-10-25T19:15:01.764Z,93.61
2022-10-25T19:20:02.202Z,93.99
2022-10-25T19:25:02.347Z,94.27
2022-10-25T19:30:01.952Z,93.85
2022-10-25T19:35:01.454Z,93.93
2022-10-25T19:40:02.273Z,94.1
2022-10-25T19:45:01.382Z,93.83
2022-10-25T19:50:01.722Z,93.9
2022-10-25T19:55:01.427Z,94.48
2022-10-25T20:00:01.565Z,94.82
2022-10-25T20:05:01.788Z,95.31
2022-10-25T20:10:02.263Z,95.7
2022-10-25T20:15:01.493Z,96.12
2022-10-25T20:20:01.411Z,96.5
2022-10-25T20:25:01.535Z,96.65
2022-10-25T20:30:01.490Z,96.84
2022-10-25T20:35:01.394Z,96.88
2022-10-25T20:40:02.082Z,96.85
2022-10-25T20:45:06.547Z,96.78
2022-10-25T20:50:01.770Z,96.54
2022-10-25T20:55:01.713Z,96.3
2022-10-25T21:00:01.315Z,96.06
2022-10-25T21:05:01.873Z,96.04
2022-10-25T21:10:01.585Z,95.86
2022-10-25T21:15:02.203Z,95.62
2022-10-25T21:20:01.305Z,95.7
2022-10-25T21:25:01.942Z,95.28
2022-10-25T21:30:01.889Z,94.74
2022-10-25T21:35:01.922Z,94.72
2022-10-25T21:40:01.536Z,94.51
2022-10-25T21:45:02.047Z,94.25
2022-10-25T21:50:01.227Z,94.08
2022-10-25T21:55:01.351Z,94.09
2022-10-25T22:00:01.313Z,94.29
2022-10-25T22:05:01.918Z,94.51
2022-10-25T22:10:01.516Z,94.51
2022-10-25T22:15:01.583Z,94.81
2022-10-25T22:20:02.086Z,94.98
2022-10-25T22:25:01.447Z,94.86
2022-10-25T22:30:02.054Z,94.83
2022-10-25T22:35:01.232Z,94.97
2022-10-25T22:40:02.098Z,94.77
2022-10-25T22:45:02.178Z,94.74
2022-10-25T22:50:01.500Z,94.47
2022-10-25T22:55:02.041Z,94.63
2022-10-25T23:00:02.080Z,94.79
2022-10-25T23:05:02.222Z,94.85
2022-10-25T23:10:01.961Z,94.64
2022-10-25T23:15:01.690Z,94.41
2022-10-25T23:20:01.968Z,94.52
2022-10-25T23:25:02.066Z,94.52
2022-10-25T23:30:02.248Z,94.48
2022-10-25T23:35:02.126Z,94.55
2022-10-25T23:40:01.992Z,94.44
2022-10-25T23:45:01.617Z,94.51
2022-10-25T23:50:01.993Z,94.7
2022-10-25T23:55:01.563Z,94.67
